createdAt,value
2023-11-09T00:01:59.293Z,94.92
2023-11-09T00:07:31.320Z,95.4
2023-11-09T00:13:02.854Z,94.96
2023-11-09T00:18:35.088Z,94.07
2023-11-09T00:24:06.266Z,94.1
2023-11-09T00:29:37.896Z,94.23
2023-11-09T00:35:10.417Z,94.38
2023-11-09T00:40:41.580Z,93.6
2023-11-09T00:46:17.818Z,93.44
2023-11-09T00:51:49.274Z,93.54
2023-11-09T00:57:20.972Z,93.53
2023-11-09T01:02:52.892Z,93.38
2023-11-09T01:08:24.865Z,93.25
2023-11-09T01:13:55.996Z,93.6
2023-11-09T01:19:27.956Z,93.27
2023-11-09T01:24:59.664Z,93.82
2023-11-09T01:30:31.287Z,92.91
2023-11-09T01:36:03.105Z,92.17
2023-11-09T01:41:34.913Z,91.62
2023-11-09T01:47:12.843Z,91.86
2023-11-09T01:52:45.934Z,92.47
2023-11-09T01:58:17.033Z,92.17
2023-11-09T02:03:48.071Z,92.83
2023-11-09T02:09:31.420Z,93.0
2023-11-09T02:14:51.587Z,92.54
2023-11-09T02:20:23.149Z,92.23
2023-11-09T02:25:55.036Z,91.45
2023-11-09T02:31:26.589Z,91.73
2023-11-09T02:36:58.545Z,91.91
2023-11-09T02:42:30.077Z,92.82
2023-11-09T02:48:06.430Z,92.7
2023-11-09T02:53:37.925Z,91.61
2023-11-09T02:59:09.601Z,93.01
2023-11-09T03:04:41.509Z,94.23
2023-11-09T03:10:13.021Z,94.41
2023-11-09T03:15:44.737Z,94.01
2023-11-09T03:21:16.394Z,95.17
2023-11-09T03:26:48.081Z,93.73
2023-11-09T03:32:19.902Z,94.68
2023-11-09T03:37:51.591Z,94.27
2023-11-09T03:43:23.723Z,94.69
2023-11-09T03:48:59.616Z,94.71
2023-11-09T03:54:31.166Z,94.79
2023-11-09T04:00:02.856Z,94.8
2023-11-09T04:05:34.517Z,94.95
2023-11-09T04:11:06.373Z,95.25
2023-11-09T04:16:38.029Z,95.67
2023-11-09T04:22:09.838Z,96.08
2023-11-09T04:27:41.527Z,95.79
2023-11-09T04:33:13.214Z,94.06
2023-11-09T04:38:44.875Z,93.4
2023-11-09T04:44:16.574Z,92.63
2023-11-09T04:49:52.980Z,92.19
2023-11-09T04:55:24.507Z,91.53
2023-11-09T05:00:56.203Z,91.51
2023-11-09T05:06:27.885Z,90.53
2023-11-09T05:11:59.716Z,89.99
2023-11-09T05:17:31.493Z,90.07
2023-11-09T05:23:03.120Z,89.83
2023-11-09T05:28:34.936Z,89.42
2023-11-09T05:34:06.833Z,90.31
2023-11-09T05:39:38.258Z,89.33
2023-11-09T05:45:10.463Z,88.97
2023-11-09T05:50:50.147Z,87.64
2023-11-09T05:56:22.853Z,86.63
2023-11-09T06:01:54.481Z,86.32
2023-11-09T06:07:26.271Z,86.17
2023-11-09T06:12:58.462Z,85.37
2023-11-09T06:18:29.735Z,84.6
2023-11-09T06:24:01.470Z,84.7
2023-11-09T06:29:33.096Z,84.72
2023-11-09T06:35:05.279Z,83.77
2023-11-09T06:40:36.719Z,82.98
2023-11-09T06:46:08.332Z,82.09
2023-11-09T06:51:44.329Z,82.6
2023-11-09T06:57:16.183Z,81.62
2023-11-09T07:02:47.886Z,81.46
2023-11-09T07:08:19.689Z,80.68
2023-11-09T07:13:51.258Z,79.83
2023-11-09T07:19:23.084Z,79.58
2023-11-09T07:25:11.168Z,79.7
2023-11-09T07:30:26.447Z,79.66
2023-11-09T07:35:58.086Z,79.89
2023-11-09T07:41:29.904Z,78.89
2023-11-09T07:47:01.651Z,79.93
2023-11-09T07:52:40.228Z,85.1
2023-11-09T07:58:11.450Z,88.27
2023-11-09T08:03:43.336Z,89.26
2023-11-09T08:09:14.928Z,88.22
2023-11-09T08:14:46.726Z,88.49
2023-11-09T08:20:18.572Z,88.27
2023-11-09T08:25:50.715Z,87.42
2023-11-09T08:31:21.941Z,87.83
2023-11-09T08:36:53.483Z,86.54
2023-11-09T08:42:25.076Z,87.86
2023-11-09T08:47:57.115Z,87.95
2023-11-09T08:53:33.108Z,86.48
2023-11-09T08:59:05.344Z,84.64
2023-11-09T09:04:36.615Z,84.57
2023-11-09T09:10:08.929Z,84.23
2023-11-09T09:15:39.917Z,84.82
2023-11-09T09:21:11.878Z,85.67
2023-11-09T09:26:43.570Z,85.56
2023-11-09T09:32:15.578Z,85.35
2023-11-09T09:37:46.942Z,85.77
2023-11-09T09:43:19.158Z,85.72
2023-11-09T09:48:50.767Z,85.76
2023-11-09T09:54:26.494Z,86.59
2023-11-09T09:59:58.214Z,87.51
2023-11-09T10:05:30.742Z,86.48
2023-11-09T10:11:02.060Z,87.5
2023-11-09T10:16:33.674Z,86.93
2023-11-09T10:22:05.056Z,87.4
2023-11-09T10:27:37.143Z,87.71
2023-11-09T10:33:08.657Z,88.92
2023-11-09T10:38:40.221Z,90.13
2023-11-09T10:44:12.130Z,90.2
2023-11-09T10:49:43.745Z,91.0
2023-11-09T10:55:19.900Z,92.1
2023-11-09T11:00:51.580Z,92.85
2023-11-09T11:06:23.244Z,93.14
2023-11-09T11:11:55.000Z,92.4
2023-11-09T11:17:27.058Z,92.78
2023-11-09T11:22:58.502Z,93.48
2023-11-09T11:28:30.113Z,92.88
2023-11-09T11:34:01.783Z,93.59
2023-11-09T11:39:33.599Z,93.63
2023-11-09T11:45:05.232Z,94.91
2023-11-09T11:50:37.004Z,94.16
2023-11-09T11:56:13.383Z,94.16
2023-11-09T12:01:45.041Z,93.69
2023-11-09T12:07:16.635Z,93.61
2023-11-09T12:12:52.165Z,95.09
2023-11-09T12:18:20.922Z,94.12
2023-11-09T12:23:51.738Z,94.37
2023-11-09T12:29:23.579Z,93.82
2023-11-09T12:34:55.321Z,93.85
2023-11-09T12:40:27.002Z,94.45
2023-11-09T12:45:58.548Z,95.44
2023-11-09T12:51:30.413Z,95.01
2023-11-09T12:57:07.063Z,94.73
2023-11-09T13:02:38.090Z,94.25
2023-11-09T13:08:10.093Z,94.81
2023-11-09T13:13:41.636Z,95.66
2023-11-09T13:19:21.452Z,94.33
2023-11-09T13:24:45.205Z,94.61
2023-11-09T13:30:16.767Z,95.49
2023-11-09T13:35:48.471Z,95.02
2023-11-09T13:41:20.658Z,94.94
2023-11-09T13:46:52.170Z,95.53
2023-11-09T13:52:23.974Z,95.64
2023-11-09T13:57:59.909Z,96.53
2023-11-09T14:03:31.558Z,95.96
2023-11-09T14:09:03.289Z,95.46
2023-11-09T14:14:34.994Z,96.08
2023-11-09T14:20:06.693Z,96.86
2023-11-09T14:25:38.682Z,96.52
2023-11-09T14:31:10.704Z,96.97
2023-11-09T14:36:41.845Z,97.05
2023-11-09T14:42:13.614Z,97.09
2023-11-09T14:47:45.423Z,97.04
2023-11-09T14:53:30.812Z,97.17
2023-11-09T14:58:53.254Z,96.7
2023-11-09T15:04:25.030Z,97.25
2023-11-09T15:09:56.566Z,96.73
2023-11-09T15:15:28.359Z,96.71
2023-11-09T15:21:00.081Z,97.54
2023-11-09T15:26:32.139Z,97.79
2023-11-09T15:32:03.520Z,96.95
2023-11-09T15:37:36.748Z,97.6
2023-11-09T15:43:07.047Z,97.61
2023-11-09T15:48:38.605Z,97.96
2023-11-09T15:54:10.686Z,99.4
2023-11-09T15:59:48.795Z,99.36
2023-11-09T16:05:20.310Z,100.0
2023-11-09T16:10:52.314Z,100.0
2023-11-09T16:16:23.870Z,100.0
2023-11-09T16:21:55.422Z,100.0
2023-11-09T16:27:27.176Z,100.0
2023-11-09T16:32:58.961Z,100.0
2023-11-09T16:38:30.846Z,100.0
2023-11-09T16:44:02.417Z,100.0
2023-11-09T16:49:34.114Z,100.0
2023-11-09T16:55:08.097Z,100.0
2023-11-09T17:00:41.899Z,100.0
2023-11-09T17:06:13.720Z,100.0
2023-11-09T17:11:45.410Z,100.0
2023-11-09T17:17:17.878Z,100.0
2023-11-09T17:22:48.938Z,100.0
2023-11-09T17:28:20.542Z,100.0
2023-11-09T17:33:52.128Z,100.0
2023-11-09T17:39:23.954Z,100.0
2023-11-09T17:44:55.678Z,100.0
2023-11-09T17:50:27.881Z,100.0
2023-11-09T17:55:59.186Z,100.0
2023-11-09T18:01:35.654Z,100.0
2023-11-09T18:07:07.071Z,100.0
2023-11-09T18:12:38.844Z,100.0
2023-11-09T18:18:10.504Z,100.0
2023-11-09T18:23:42.220Z,100.0
2023-11-09T18:29:14.023Z,100.0
2023-11-09T18:34:45.847Z,100.0
2023-11-09T18:40:17.391Z,100.0
2023-11-09T18:45:49.177Z,100.0
2023-11-09T18:51:20.818Z,100.0
2023-11-09T18:56:52.484Z,100.0
2023-11-09T19:02:29.743Z,100.0
2023-11-09T19:08:00.417Z,100.0
2023-11-09T19:13:32.052Z,100.0
2023-11-09T19:19:04.235Z,100.0
2023-11-09T19:24:35.518Z,100.0
2023-11-09T19:30:07.591Z,100.0
2023-11-09T19:35:39.058Z,100.0
2023-11-09T19:41:10.965Z,100.0
2023-11-09T19:46:42.436Z,100.0
2023-11-09T19:52:14.318Z,100.0
2023-11-09T19:57:45.864Z,100.0
2023-11-09T20:03:22.303Z,100.0
2023-11-09T20:08:53.741Z,100.0
2023-11-09T20:14:25.484Z,100.0
2023-11-09T20:19:57.165Z,100.0
2023-11-09T20:25:29.033Z,100.0
2023-11-09T20:31:01.051Z,100.0
2023-11-09T20:36:32.535Z,100.0
2023-11-09T20:42:04.904Z,100.0
2023-11-09T20:47:36.074Z,100.0
2023-11-09T20:53:07.570Z,100.0
2023-11-09T20:58:39.356Z,100.0
2023-11-09T21:04:15.504Z,100.0
2023-11-09T21:09:47.167Z,100.0
2023-11-09T21:15:18.974Z,100.0
2023-11-09T21:20:50.630Z,100.0
2023-11-09T21:26:22.617Z,100.0
2023-11-09T21:31:54.526Z,100.0
2023-11-09T21:37:25.714Z,100.0
2023-11-09T21:42:57.497Z,100.0
2023-11-09T21:48:29.601Z,100.0
2023-11-09T21:54:01.974Z,100.0
2023-11-09T21:59:32.636Z,100.0
2023-11-09T22:05:08.781Z,100.0
2023-11-09T22:10:40.904Z,100.0
2023-11-09T22:16:12.198Z,100.0
2023-11-09T22:21:43.997Z,100.0
2023-11-09T22:27:15.674Z,100.0
2023-11-09T22:32:47.449Z,100.0
2023-11-09T22:38:19.147Z,100.0
2023-11-09T22:43:50.876Z,100.0
2023-11-09T22:49:22.570Z,100.0
2023-11-09T22:54:54.505Z,100.0
2023-11-09T23:00:26.340Z,100.0
2023-11-09T23:06:04.250Z,100.0
2023-11-09T23:11:35.880Z,100.0
2023-11-09T23:17:07.528Z,100.0
2023-11-09T23:22:39.186Z,100.0
2023-11-09T23:28:11.314Z,100.0
2023-11-09T23:33:42.768Z,100.0
2023-11-09T23:39:14.541Z,100.0
2023-11-09T23:44:46.146Z,100.0
2023-11-09T23:50:17.929Z,100.0
2023-11-09T23:55:49.674Z,100.0
